Strona główna
METAR-TAF:

METAR-TAF

Lotnisko :

Port lotniczy Tebriz

Tebriz, Iran

Szerokość geograficzna: 38-05N, Długość geograficzna: 046-17E, wysokość: 1367 m

Aktualna obserwacja pogody

Raport powstał 31 minut temu, godzina 22:30 UTC
Wiatr 6 kt od północno-północny wschód
Temperatura 16°C
Wilgotność 36%
Ciśnienie 1018 hPa
Widzialność 10 km lub więcej
Brak chmur poniżej 1500 m i brak chmur cumulonimbus

METAR: OITT 302230Z 03006KT CAVOK 16/01 Q1017 A3006

czas: 03:31 (23:01 UTC)

Prognoza

Raport powstał 5 godziny i 31 minut temu, godzina 17:30 UTC
Prognoza ważna od 30 godzina 18 UTC do 31 godzina 24 UTC
Wiatr 8 kt od zachodnio-południowy zachód
Widzialność: 7000 m
Mało chmury na wysokości 3500 ft
Przejściowo
od 31 godzina 09 UTC do 31 godzina 18 UTC
Wiatr 20 kt od zachodnio-południowy zachód

TAF: OITT 301730Z 3018/3124 24008KT 7000 FEW035 TEMPO 3109/3118 24020KT

Obserwacja i prognoza pogody dla ponad 4000 lotnisk (raport METAR i TAF).

Dostępne stacje oznaczono żółtymi i czerwonymi punktami na mapie.

Najedź kursorem aby zobaczyć nazwę stacji.

Kliknij aby zobaczyć obserwacje i prognozy pogody.

Aby zmienić mapę: kliknij na zielony przycisk z czarnym krzyżykiem, aby powiększyć; na zielony przycisk z myślnikiem, aby pomniejszyć; na zielone strzałki, aby przejść do map sąsiednich.


METAR-TAF: